createdAt,value
2018-04-12T00:01:13.346Z,12.50
2018-04-12T00:03:40.830Z,12.40
2018-04-12T00:06:09.039Z,12.40
2018-04-12T00:08:36.518Z,12.40
2018-04-12T00:11:03.990Z,12.40
2018-04-12T00:13:31.812Z,12.30
2018-04-12T00:15:59.276Z,12.30
2018-04-12T00:18:26.738Z,12.30
2018-04-12T00:20:54.216Z,12.30
2018-04-12T00:23:21.678Z,12.20
2018-04-12T00:25:49.162Z,12.20
2018-04-12T00:28:17.382Z,12.20
2018-04-12T00:30:44.922Z,12.10
2018-04-12T00:33:12.384Z,12.10
2018-04-12T00:35:39.839Z,12.10
2018-04-12T00:38:07.314Z,12.10
2018-04-12T00:40:34.821Z,12.10
2018-04-12T00:43:02.245Z,12.00
2018-04-12T00:45:29.887Z,12.00
2018-04-12T00:47:57.356Z,12.00
2018-04-12T00:50:24.820Z,11.90
2018-04-12T00:52:52.284Z,11.90
2018-04-12T00:55:19.759Z,11.90
2018-04-12T00:57:47.238Z,11.80
2018-04-12T01:00:14.694Z,11.80
2018-04-12T01:02:42.190Z,11.80
2018-04-12T01:05:09.647Z,11.80
2018-04-12T01:07:37.115Z,11.70
2018-04-12T01:10:04.595Z,11.70
2018-04-12T01:12:32.043Z,11.70
2018-04-12T01:14:59.541Z,11.60
2018-04-12T01:17:27.103Z,11.60
2018-04-12T01:19:54.618Z,11.60
2018-04-12T01:22:22.070Z,11.50
2018-04-12T01:24:49.633Z,11.50
2018-04-12T01:27:17.084Z,11.50
2018-04-12T01:29:44.584Z,11.50
2018-04-12T01:32:12.044Z,11.50
2018-04-12T01:34:39.524Z,11.40
2018-04-12T01:37:07.743Z,11.40
2018-04-12T01:39:35.315Z,11.40
2018-04-12T01:42:02.795Z,11.30
2018-04-12T01:44:30.283Z,11.30
2018-04-12T01:46:58.547Z,11.30
2018-04-12T01:49:26.236Z,11.20
2018-04-12T01:51:53.799Z,11.20
2018-04-12T01:54:21.278Z,11.20
2018-04-12T01:56:48.744Z,11.20
2018-04-12T01:59:16.219Z,11.20
2018-04-12T02:01:43.692Z,11.20
2018-04-12T02:04:11.195Z,11.20
2018-04-12T02:06:38.651Z,11.10
2018-04-12T02:09:06.106Z,11.10
2018-04-12T02:11:33.576Z,11.10
2018-04-12T02:14:01.054Z,11.10
2018-04-12T02:16:28.514Z,11.10
2018-04-12T02:18:55.999Z,11.10
2018-04-12T02:21:23.488Z,11.10
2018-04-12T02:23:51.715Z,11.00
2018-04-12T02:26:19.179Z,11.00
2018-04-12T02:28:47.474Z,11.00
2018-04-12T02:31:14.913Z,11.00
2018-04-12T02:33:42.396Z,11.00
2018-04-12T02:36:09.842Z,11.00
2018-04-12T02:38:37.300Z,11.00
2018-04-12T02:41:04.788Z,10.90
2018-04-12T02:43:33.050Z,10.90
2018-04-12T02:46:00.552Z,10.90
2018-04-12T02:48:28.029Z,10.90
2018-04-12T02:50:55.479Z,10.90
2018-04-12T02:53:23.141Z,10.80
2018-04-12T02:55:50.615Z,10.80
2018-04-12T02:58:18.109Z,10.80
2018-04-12T03:00:45.608Z,10.80
2018-04-12T03:03:13.078Z,10.70
2018-04-12T03:05:40.530Z,10.80
2018-04-12T03:08:08.016Z,10.70
2018-04-12T03:10:35.488Z,10.70
2018-04-12T03:13:02.986Z,10.70
2018-04-12T03:15:30.457Z,10.70
2018-04-12T03:17:57.922Z,10.60
2018-04-12T03:20:25.386Z,10.60
2018-04-12T03:22:52.842Z,10.60
2018-04-12T03:25:20.326Z,10.60
2018-04-12T03:27:47.783Z,10.50
2018-04-12T03:30:15.271Z,10.50
2018-04-12T03:32:43.492Z,10.50
2018-04-12T03:35:10.980Z,10.50
2018-04-12T03:37:38.468Z,10.50
2018-04-12T03:40:06.714Z,10.40
2018-04-12T03:42:34.196Z,10.40
2018-04-12T03:45:02.414Z,10.30
2018-04-12T03:47:29.975Z,10.30
2018-04-12T03:49:57.492Z,10.30
2018-04-12T03:52:24.952Z,10.30
2018-04-12T03:54:53.179Z,10.20
2018-04-12T03:57:20.663Z,10.20
2018-04-12T03:59:48.132Z,10.20
2018-04-12T04:02:15.579Z,10.20
2018-04-12T04:04:43.056Z,10.10
2018-04-12T04:07:10.539Z,10.10
2018-04-12T04:09:38.000Z,10.10
2018-04-12T04:12:05.453Z,10.10
2018-04-12T04:14:41.346Z,10.00
2018-04-12T04:17:20.778Z,10.00
2018-04-12T04:20:00.074Z,10.00
2018-04-12T04:22:27.708Z,10.00
2018-04-12T04:24:56.030Z,9.90
2018-04-12T04:27:23.482Z,9.90
2018-04-12T04:29:51.034Z,9.90
2018-04-12T04:32:19.267Z,9.90
2018-04-12T04:34:46.756Z,9.90
2018-04-12T04:37:14.219Z,9.90
2018-04-12T04:39:42.457Z,9.90
2018-04-12T04:42:09.938Z,9.80
2018-04-12T04:44:37.402Z,9.90
2018-04-12T04:47:04.860Z,9.80
2018-04-12T04:49:33.108Z,9.80
2018-04-12T04:52:01.346Z,9.80
2018-04-12T04:54:28.820Z,9.80
2018-04-12T04:56:56.300Z,9.80
2018-04-12T04:59:23.783Z,9.80
2018-04-12T05:01:51.235Z,9.80
2018-04-12T05:04:18.686Z,9.80
2018-04-12T05:06:46.159Z,9.80
2018-04-12T05:09:13.619Z,9.90
2018-04-12T05:11:41.104Z,9.90
2018-04-12T05:14:08.595Z,9.90
2018-04-12T05:16:36.047Z,10.00
2018-04-12T05:19:03.508Z,10.00
2018-04-12T05:21:30.995Z,10.10
2018-04-12T05:23:58.462Z,10.20
2018-04-12T05:26:25.923Z,10.30
2018-04-12T05:28:53.403Z,10.40
2018-04-12T05:31:20.874Z,10.50
2018-04-12T05:33:48.351Z,10.60
2018-04-12T05:36:16.017Z,10.60
2018-04-12T05:38:43.512Z,10.70
2018-04-12T05:41:11.646Z,10.80
2018-04-12T05:43:39.981Z,10.90
2018-04-12T05:46:07.443Z,10.90
2018-04-12T05:48:34.913Z,11.00
2018-04-12T05:51:02.550Z,11.00
2018-04-12T05:53:30.024Z,11.10
2018-04-12T05:55:57.515Z,11.10
2018-04-12T05:58:24.999Z,11.10
2018-04-12T06:00:52.475Z,11.20
2018-04-12T06:03:19.942Z,11.30
2018-04-12T06:05:47.507Z,11.30
2018-04-12T06:08:15.010Z,11.40
2018-04-12T06:10:42.459Z,11.40
2018-04-12T06:13:09.929Z,11.50
2018-04-12T06:15:37.421Z,11.50
2018-04-12T06:18:04.905Z,11.60
2018-04-12T06:20:32.360Z,11.60
2018-04-12T06:22:59.806Z,11.70
2018-04-12T06:25:27.291Z,11.70
2018-04-12T06:27:54.770Z,11.70
2018-04-12T06:30:23.119Z,11.80
2018-04-12T06:32:51.366Z,11.90
2018-04-12T06:35:18.823Z,11.90
2018-04-12T06:37:46.327Z,12.00
2018-04-12T06:40:14.554Z,12.00
2018-04-12T06:42:42.022Z,12.00
2018-04-12T06:45:09.503Z,12.10
2018-04-12T06:47:37.754Z,12.10
2018-04-12T06:50:05.252Z,12.10
2018-04-12T06:52:33.499Z,12.20
2018-04-12T06:55:00.983Z,12.20
2018-04-12T06:57:29.234Z,12.40
2018-04-12T06:59:56.699Z,12.40
2018-04-12T07:02:24.180Z,12.50
2018-04-12T07:04:52.399Z,12.60
2018-04-12T07:07:19.879Z,12.60
2018-04-12T07:09:47.327Z,12.60
2018-04-12T07:12:14.795Z,12.70
2018-04-12T07:14:42.262Z,12.70
2018-04-12T07:17:09.760Z,12.80
2018-04-12T07:19:37.220Z,12.80
2018-04-12T07:22:04.676Z,12.80
2018-04-12T07:24:32.153Z,12.90
2018-04-12T07:26:59.639Z,12.90
2018-04-12T07:29:27.108Z,13.00
2018-04-12T07:31:54.558Z,13.00
2018-04-12T07:34:22.035Z,13.00
2018-04-12T07:36:49.510Z,13.10
2018-04-12T07:39:17.000Z,13.20
2018-04-12T07:41:44.544Z,13.20
2018-04-12T07:44:11.991Z,13.30
2018-04-12T07:46:40.230Z,13.20
2018-04-12T07:49:07.696Z,13.20
2018-04-12T07:51:35.956Z,13.20
2018-04-12T07:54:03.428Z,13.20
2018-04-12T07:56:30.893Z,13.20
2018-04-12T07:58:58.373Z,13.20
2018-04-12T08:01:26.603Z,13.10
2018-04-12T08:03:54.083Z,13.10
2018-04-12T08:06:21.530Z,13.00
2018-04-12T08:08:49.016Z,13.10
2018-04-12T08:11:17.297Z,13.10
2018-04-12T08:13:45.568Z,13.10
2018-04-12T08:16:13.788Z,13.20
2018-04-12T08:18:41.244Z,13.10
2018-04-12T08:21:08.729Z,13.20
2018-04-12T08:23:36.218Z,13.30
2018-04-12T08:26:03.667Z,13.50
2018-04-12T08:28:31.140Z,13.50
2018-04-12T08:30:59.383Z,13.70
2018-04-12T08:33:26.838Z,13.70
2018-04-12T08:35:54.323Z,13.80
2018-04-12T08:38:21.774Z,13.70
2018-04-12T08:40:49.254Z,13.80
2018-04-12T08:43:17.527Z,13.90
2018-04-12T08:45:45.046Z,13.90
2018-04-12T08:48:12.536Z,13.90
2018-04-12T08:50:40.004Z,13.90
2018-04-12T08:53:07.467Z,13.90
2018-04-12T08:55:35.711Z,13.90
2018-04-12T08:58:03.158Z,13.90
2018-04-12T09:00:30.644Z,14.00
2018-04-12T09:02:58.124Z,14.00
2018-04-12T09:05:25.585Z,14.10
2018-04-12T09:07:53.062Z,14.20
2018-04-12T09:10:20.633Z,14.30
2018-04-12T09:12:48.089Z,14.30
2018-04-12T09:15:15.563Z,14.40
2018-04-12T09:17:43.043Z,14.50
2018-04-12T09:20:10.530Z,14.50
2018-04-12T09:22:38.042Z,14.60
2018-04-12T09:25:05.496Z,14.70
2018-04-12T09:27:32.963Z,14.90
2018-04-12T09:30:00.470Z,15.10
2018-04-12T09:32:27.959Z,15.20
2018-04-12T09:34:55.428Z,15.30
2018-04-12T09:37:22.883Z,15.30
2018-04-12T09:39:50.376Z,15.40
2018-04-12T09:42:17.876Z,15.60
2018-04-12T09:44:45.370Z,15.80
2018-04-12T09:47:12.826Z,16.00
2018-04-12T09:49:40.284Z,16.20
2018-04-12T09:52:07.763Z,16.40
2018-04-12T09:54:35.244Z,16.60
2018-04-12T09:57:03.464Z,16.70
2018-04-12T09:59:30.961Z,16.70
2018-04-12T10:02:01.394Z,16.60
2018-04-12T10:04:29.712Z,16.40
2018-04-12T10:07:10.007Z,16.40
2018-04-12T10:09:37.451Z,16.40
2018-04-12T10:12:04.957Z,16.50
2018-04-12T10:14:32.404Z,16.70
2018-04-12T10:16:59.880Z,16.90
2018-04-12T10:19:27.364Z,17.10
2018-04-12T10:21:54.887Z,17.20
2018-04-12T10:24:23.127Z,17.30
2018-04-12T10:26:50.588Z,17.30
2018-04-12T10:29:18.088Z,17.30
2018-04-12T10:31:47.226Z,17.20
2018-04-12T10:34:14.673Z,17.20
2018-04-12T10:36:42.139Z,17.20
2018-04-12T10:39:09.627Z,17.10
2018-04-12T10:41:37.196Z,17.20
2018-04-12T10:44:05.524Z,17.30
2018-04-12T10:46:33.122Z,17.30
2018-04-12T10:49:00.582Z,17.40
2018-04-12T10:51:28.105Z,17.40
2018-04-12T10:53:55.547Z,17.50
2018-04-12T10:56:23.039Z,17.50
2018-04-12T10:58:50.503Z,17.60
2018-04-12T11:01:17.979Z,17.60
2018-04-12T11:03:45.451Z,17.60
2018-04-12T11:06:12.931Z,17.60
2018-04-12T11:08:40.388Z,17.60
2018-04-12T11:11:07.876Z,17.60
2018-04-12T11:13:35.363Z,17.60
2018-04-12T11:16:02.825Z,17.50
2018-04-12T11:18:30.352Z,17.50
2018-04-12T11:20:57.879Z,17.50
2018-04-12T11:23:26.118Z,17.60
2018-04-12T11:25:53.596Z,17.60
2018-04-12T11:28:21.091Z,17.60
2018-04-12T11:30:48.539Z,17.70
2018-04-12T11:33:15.991Z,17.70
2018-04-12T11:35:44.407Z,17.80
2018-04-12T11:38:11.868Z,17.70
2018-04-12T11:40:39.327Z,17.70
2018-04-12T11:43:06.796Z,17.50
2018-04-12T11:45:34.254Z,17.40
2018-04-12T11:48:01.751Z,17.30
2018-04-12T11:50:30.024Z,17.20
2018-04-12T11:52:58.262Z,17.20
2018-04-12T11:55:25.728Z,17.20
2018-04-12T11:57:53.980Z,17.50
2018-04-12T12:00:21.451Z,17.50
2018-04-12T12:02:48.904Z,17.70
2018-04-12T12:05:16.387Z,17.90
2018-04-12T12:07:43.877Z,18.10
2018-04-12T12:10:11.365Z,18.20
2018-04-12T12:12:38.855Z,18.20
2018-04-12T12:15:06.323Z,18.30
2018-04-12T12:17:33.810Z,18.40
2018-04-12T12:20:01.284Z,18.50
2018-04-12T12:22:28.730Z,18.60
2018-04-12T12:24:56.982Z,18.80
2018-04-12T12:27:24.445Z,18.80
2018-04-12T12:29:51.919Z,19.00
2018-04-12T12:32:20.329Z,19.40
2018-04-12T12:34:47.788Z,19.30
2018-04-12T12:37:15.279Z,19.50
2018-04-12T12:39:42.794Z,19.80
2018-04-12T12:42:10.267Z,20.00
2018-04-12T12:44:37.815Z,20.10
2018-04-12T12:47:05.317Z,20.10
2018-04-12T12:49:32.787Z,20.10
2018-04-12T12:52:00.253Z,20.20
2018-04-12T12:54:27.721Z,20.40
2018-04-12T12:56:56.046Z,20.70
2018-04-12T12:59:23.537Z,20.60
2018-04-12T13:01:50.991Z,20.80
2018-04-12T13:04:18.473Z,21.00
2018-04-12T13:06:45.944Z,21.20
2018-04-12T13:09:13.429Z,21.30
2018-04-12T13:11:40.954Z,21.40
2018-04-12T13:14:09.198Z,21.40
2018-04-12T13:16:36.700Z,21.40
2018-04-12T13:19:04.927Z,21.80
2018-04-12T13:21:32.503Z,21.70
2018-04-12T13:23:59.979Z,22.10
2018-04-12T13:26:27.452Z,22.30
2018-04-12T13:28:55.688Z,22.70
2018-04-12T13:31:23.169Z,22.60
2018-04-12T13:33:50.632Z,22.70
2018-04-12T13:36:18.123Z,22.90
2018-04-12T13:38:45.616Z,23.10
2018-04-12T13:41:13.111Z,23.70
2018-04-12T13:43:41.342Z,25.00
2018-04-12T13:46:09.564Z,25.70
2018-04-12T13:48:37.058Z,25.70
2018-04-12T13:51:04.527Z,25.90
2018-04-12T13:53:32.015Z,26.60
2018-04-12T13:55:59.458Z,27.10
2018-04-12T13:58:26.940Z,27.50
2018-04-12T14:00:54.400Z,28.90
2018-04-12T14:03:21.891Z,30.70
2018-04-12T14:05:49.347Z,32.40
2018-04-12T14:08:16.803Z,34.10
2018-04-12T14:10:45.216Z,34.50
2018-04-12T14:13:12.790Z,34.50
2018-04-12T14:15:40.283Z,34.20
2018-04-12T14:18:08.498Z,31.80
2018-04-12T14:20:35.963Z,31.80
2018-04-12T14:23:03.468Z,32.40
2018-04-12T14:25:30.927Z,33.00
2018-04-12T14:27:58.397Z,33.40
2018-04-12T14:30:25.888Z,34.20
2018-04-12T14:32:53.368Z,35.80
2018-04-12T14:35:21.146Z,37.20
2018-04-12T14:37:48.628Z,38.60
2018-04-12T14:40:16.104Z,37.40
2018-04-12T14:42:43.586Z,35.00
2018-04-12T14:45:11.063Z,32.70
2018-04-12T14:47:38.538Z,30.80
2018-04-12T14:50:06.015Z,30.10
2018-04-12T14:52:33.490Z,31.50
2018-04-12T14:55:00.972Z,32.50
2018-04-12T14:57:28.442Z,33.40
2018-04-12T14:59:55.914Z,34.50
2018-04-12T15:02:23.387Z,35.60
2018-04-12T15:04:50.903Z,36.50
2018-04-12T15:07:18.322Z,37.30
2018-04-12T15:09:45.801Z,38.00
2018-04-12T15:12:14.051Z,37.60
2018-04-12T15:14:41.598Z,37.50
2018-04-12T15:17:09.176Z,36.00
2018-04-12T15:19:36.623Z,34.00
2018-04-12T15:22:04.075Z,34.00
2018-04-12T15:24:32.333Z,35.90
2018-04-12T15:26:59.815Z,35.90
2018-04-12T15:29:27.304Z,36.90
2018-04-12T15:31:55.593Z,38.20
2018-04-12T15:34:23.802Z,38.70
2018-04-12T15:36:52.263Z,38.60
2018-04-12T15:39:19.740Z,39.00
2018-04-12T15:41:47.208Z,39.20
2018-04-12T15:44:15.682Z,39.50
2018-04-12T15:46:43.146Z,39.50
2018-04-12T15:49:10.628Z,39.40
2018-04-12T15:51:38.107Z,39.20
2018-04-12T15:54:06.329Z,38.20
2018-04-12T15:56:33.812Z,38.10
2018-04-12T15:59:01.345Z,37.70
2018-04-12T16:01:28.802Z,37.30
2018-04-12T16:03:56.276Z,36.80
2018-04-12T16:06:23.755Z,36.40
2018-04-12T16:08:51.238Z,35.60
2018-04-12T16:11:18.697Z,34.50
2018-04-12T16:13:46.187Z,33.80
2018-04-12T16:16:13.647Z,33.60
2018-04-12T16:18:41.128Z,33.70
2018-04-12T16:21:08.619Z,33.90
2018-04-12T16:23:36.170Z,33.90
2018-04-12T16:26:03.622Z,33.50
2018-04-12T16:28:31.082Z,33.20
2018-04-12T16:30:58.603Z,33.10
2018-04-12T16:33:26.068Z,33.00
2018-04-12T16:35:53.636Z,32.80
2018-04-12T16:38:21.177Z,32.50
2018-04-12T16:40:48.650Z,31.90
2018-04-12T16:43:16.295Z,31.00
2018-04-12T16:45:43.767Z,29.70
2018-04-12T16:48:11.244Z,28.80
2018-04-12T16:50:38.725Z,27.90
2018-04-12T16:53:06.180Z,27.00
2018-04-12T16:55:33.695Z,26.30
2018-04-12T16:58:01.177Z,25.60
2018-04-12T17:00:28.661Z,25.10
2018-04-12T17:02:56.169Z,24.70
2018-04-12T17:05:23.635Z,24.40
2018-04-12T17:07:51.107Z,24.10
2018-04-12T17:10:18.568Z,23.90
2018-04-12T17:12:46.052Z,23.70
2018-04-12T17:15:13.527Z,23.40
2018-04-12T17:17:41.763Z,23.10
2018-04-12T17:20:09.299Z,23.10
2018-04-12T17:22:36.784Z,23.00
2018-04-12T17:25:04.249Z,22.90
2018-04-12T17:27:31.743Z,22.90
2018-04-12T17:29:59.286Z,22.90
2018-04-12T17:32:26.743Z,22.80
2018-04-12T17:34:54.220Z,22.70
2018-04-12T17:37:22.511Z,22.70
2018-04-12T17:39:49.958Z,22.60
2018-04-12T17:42:18.342Z,22.80
2018-04-12T17:44:45.832Z,22.80
2018-04-12T17:47:13.673Z,22.80
2018-04-12T17:49:41.154Z,22.70
2018-04-12T17:52:08.770Z,22.50
2018-04-12T17:54:37.043Z,22.20
2018-04-12T17:57:04.489Z,22.20
2018-04-12T17:59:31.931Z,22.10
2018-04-12T18:01:59.426Z,21.90
2018-04-12T18:04:27.689Z,21.60
2018-04-12T18:06:55.143Z,21.50
2018-04-12T18:09:22.623Z,21.40
2018-04-12T18:11:50.847Z,21.00
2018-04-12T18:14:18.294Z,21.00
2018-04-12T18:16:45.779Z,20.90
2018-04-12T18:19:13.236Z,20.70
2018-04-12T18:21:41.566Z,20.50
2018-04-12T18:24:09.041Z,20.50
2018-04-12T18:26:36.515Z,20.40
2018-04-12T18:29:03.980Z,20.20
2018-04-12T18:31:31.456Z,20.10
2018-04-12T18:33:58.915Z,20.00
2018-04-12T18:36:26.391Z,19.90
2018-04-12T18:38:53.847Z,19.80
2018-04-12T18:41:21.627Z,19.70
2018-04-12T18:43:49.155Z,19.60
2018-04-12T18:46:16.614Z,19.50
2018-04-12T18:48:44.238Z,19.50
2018-04-12T18:51:12.717Z,19.50
2018-04-12T18:53:40.212Z,19.40
2018-04-12T18:56:07.693Z,19.40
2018-04-12T18:58:35.411Z,19.40
2018-04-12T19:01:03.077Z,19.40
2018-04-12T19:03:30.589Z,19.40
2018-04-12T19:05:58.971Z,19.40
2018-04-12T19:08:26.567Z,19.30
2018-04-12T19:13:28.003Z,19.30
2018-04-12T19:15:55.592Z,19.30
2018-04-12T19:18:23.153Z,19.20
2018-04-12T19:20:51.183Z,19.30
2018-04-12T19:23:18.777Z,19.20
2018-04-12T19:25:46.452Z,19.20
2018-04-12T19:28:14.036Z,19.10
2018-04-12T19:30:42.558Z,19.10
2018-04-12T19:33:10.108Z,19.10
2018-04-12T19:35:37.939Z,19.10
2018-04-12T19:38:05.503Z,19.10
2018-04-12T19:40:33.108Z,19.10
2018-04-12T19:43:01.488Z,19.00
2018-04-12T19:45:28.981Z,19.00
2018-04-12T19:47:56.698Z,18.90
2018-04-12T19:50:24.236Z,18.80
2018-04-12T19:52:51.714Z,18.80
2018-04-12T19:55:19.222Z,18.60
2018-04-12T19:57:46.798Z,18.50
2018-04-12T20:00:14.459Z,18.40
2018-04-12T20:02:42.069Z,18.40
2018-04-12T20:05:10.324Z,18.30
2018-04-12T20:07:37.821Z,18.30
2018-04-12T20:10:05.444Z,18.20
2018-04-12T20:12:32.947Z,18.10
2018-04-12T20:15:00.535Z,18.10
2018-04-12T20:17:28.257Z,18.10
2018-04-12T20:19:55.824Z,18.00
2018-04-12T20:22:24.063Z,18.10
2018-04-12T20:24:51.581Z,18.10
2018-04-12T20:27:19.058Z,18.10
2018-04-12T20:29:46.624Z,18.10
2018-04-12T20:32:14.104Z,18.20
2018-04-12T20:34:41.587Z,18.10
2018-04-12T20:37:09.844Z,17.90
2018-04-12T20:39:37.314Z,17.90
2018-04-12T20:42:05.545Z,17.80
2018-04-12T20:44:33.017Z,17.70
2018-04-12T20:47:00.615Z,17.60
2018-04-12T20:49:28.086Z,17.40
2018-04-12T20:51:55.559Z,17.30
2018-04-12T20:54:23.045Z,17.20
2018-04-12T20:56:50.523Z,17.10
2018-04-12T20:59:17.995Z,17.00
2018-04-12T21:01:45.467Z,17.00
2018-04-12T21:04:13.699Z,16.90
2018-04-12T21:06:41.199Z,16.80
2018-04-12T21:09:09.438Z,16.70
2018-04-12T21:11:36.922Z,16.70
2018-04-12T21:14:04.395Z,16.70
2018-04-12T21:16:32.623Z,16.60
2018-04-12T21:19:00.882Z,16.50
2018-04-12T21:21:28.343Z,16.50
2018-04-12T21:23:55.823Z,16.50
2018-04-12T21:26:23.288Z,16.50
2018-04-12T21:28:50.789Z,16.40
2018-04-12T21:31:19.016Z,16.40
2018-04-12T21:33:46.486Z,16.30
2018-04-12T21:36:13.963Z,16.30
2018-04-12T21:38:41.419Z,16.30
2018-04-12T21:41:08.919Z,16.20
2018-04-12T21:43:36.386Z,16.20
2018-04-12T21:46:03.839Z,16.20
2018-04-12T21:48:31.318Z,16.10
2018-04-12T21:50:58.783Z,16.10
2018-04-12T21:53:26.259Z,16.10
2018-04-12T21:55:53.743Z,16.10
2018-04-12T21:58:21.266Z,16.00
2018-04-12T22:00:48.752Z,16.00
2018-04-12T22:03:16.976Z,16.00
2018-04-12T22:05:44.460Z,15.90
2018-04-12T22:08:12.683Z,15.90
2018-04-12T22:10:40.256Z,15.90
2018-04-12T22:13:07.711Z,15.90
2018-04-12T22:15:35.196Z,15.90
2018-04-12T22:18:02.679Z,15.80
2018-04-12T22:20:30.167Z,15.80
2018-04-12T22:22:57.621Z,15.80
2018-04-12T22:25:25.116Z,15.70
2018-04-12T22:27:52.575Z,15.70
2018-04-12T22:30:20.054Z,15.60
2018-04-12T22:32:47.548Z,15.60
2018-04-12T23:03:47.459Z,15.20
2018-04-12T23:06:14.964Z,15.20
2018-04-12T23:08:42.516Z,15.20
2018-04-12T23:11:09.979Z,15.20
2018-04-12T23:13:37.464Z,15.20
2018-04-12T23:16:04.919Z,15.20
2018-04-12T23:18:32.395Z,15.20
2018-04-12T23:20:59.851Z,15.20
2018-04-12T23:23:27.332Z,15.20
2018-04-12T23:25:54.798Z,15.20
2018-04-12T23:28:22.283Z,15.10
2018-04-12T23:30:49.731Z,15.10
2018-04-12T23:33:17.182Z,15.10
2018-04-12T23:35:44.659Z,15.00
2018-04-12T23:38:12.116Z,15.00
2018-04-12T23:40:39.654Z,15.00
2018-04-12T23:43:07.903Z,14.90
2018-04-12T23:45:35.428Z,14.90
2018-04-12T23:48:02.891Z,14.80
2018-04-12T23:50:30.383Z,14.80
2018-04-12T23:52:57.862Z,14.70
2018-04-12T23:55:25.316Z,14.70
2018-04-12T23:57:52.804Z,14.60
